sensor_id;sensor_type;location;lat;lon;timestamp;temperature;humidity
24426;DHT22;12611;44.446;26.000;2023-06-24T00:00:35;27.20;70.50
24426;DHT22;12611;44.446;26.000;2023-06-24T00:03:06;27.10;70.50
24426;DHT22;12611;44.446;26.000;2023-06-24T00:05:35;27.10;70.80
24426;DHT22;12611;44.446;26.000;2023-06-24T00:08:07;27.10;70.80
24426;DHT22;12611;44.446;26.000;2023-06-24T00:10:36;27.00;70.80
24426;DHT22;12611;44.446;26.000;2023-06-24T00:13:04;27.00;71.00
24426;DHT22;12611;44.446;26.000;2023-06-24T00:15:32;27.00;71.00
24426;DHT22;12611;44.446;26.000;2023-06-24T00:18:01;26.90;71.10
24426;DHT22;12611;44.446;26.000;2023-06-24T00:20:35;26.90;71.20
24426;DHT22;12611;44.446;26.000;2023-06-24T00:23:03;26.80;71.20
24426;DHT22;12611;44.446;26.000;2023-06-24T00:25:32;26.80;71.20
24426;DHT22;12611;44.446;26.000;2023-06-24T00:28:00;26.80;71.20
24426;DHT22;12611;44.446;26.000;2023-06-24T00:30:29;26.80;71.30
24426;DHT22;12611;44.446;26.000;2023-06-24T00:32:57;26.80;71.30
24426;DHT22;12611;44.446;26.000;2023-06-24T00:35:26;26.70;71.30
24426;DHT22;12611;44.446;26.000;2023-06-24T00:37:55;26.70;71.40
24426;DHT22;12611;44.446;26.000;2023-06-24T00:40:25;26.70;71.40
24426;DHT22;12611;44.446;26.000;2023-06-24T00:42:54;26.70;71.40
24426;DHT22;12611;44.446;26.000;2023-06-24T00:45:22;26.70;71.50
24426;DHT22;12611;44.446;26.000;2023-06-24T00:47:51;26.70;71.70
24426;DHT22;12611;44.446;26.000;2023-06-24T00:50:21;26.70;71.90
24426;DHT22;12611;44.446;26.000;2023-06-24T00:52:50;26.70;72.30
24426;DHT22;12611;44.446;26.000;2023-06-24T00:55:20;26.60;72.10
24426;DHT22;12611;44.446;26.000;2023-06-24T00:57:50;26.60;72.10
24426;DHT22;12611;44.446;26.000;2023-06-24T01:00:21;26.60;72.20
24426;DHT22;12611;44.446;26.000;2023-06-24T01:02:50;26.50;72.10
24426;DHT22;12611;44.446;26.000;2023-06-24T01:05:19;26.50;72.10
24426;DHT22;12611;44.446;26.000;2023-06-24T01:07:51;26.50;72.10
24426;DHT22;12611;44.446;26.000;2023-06-24T01:10:24;26.50;72.50
24426;DHT22;12611;44.446;26.000;2023-06-24T01:12:54;26.50;73.40
24426;DHT22;12611;44.446;26.000;2023-06-24T01:15:22;26.40;73.80
24426;DHT22;12611;44.446;26.000;2023-06-24T01:17:56;26.40;74.50
24426;DHT22;12611;44.446;26.000;2023-06-24T01:20:29;26.40;75.00
24426;DHT22;12611;44.446;26.000;2023-06-24T01:26:19;26.30;75.50
24426;DHT22;12611;44.446;26.000;2023-06-24T01:29:05;26.20;76.00
24426;DHT22;12611;44.446;26.000;2023-06-24T01:31:44;26.20;76.50
24426;DHT22;12611;44.446;26.000;2023-06-24T01:34:19;26.20;76.40
24426;DHT22;12611;44.446;26.000;2023-06-24T01:36:55;26.10;76.60
24426;DHT22;12611;44.446;26.000;2023-06-24T01:39:26;26.10;76.70
24426;DHT22;12611;44.446;26.000;2023-06-24T01:41:59;26.10;77.00
24426;DHT22;12611;44.446;26.000;2023-06-24T01:44:29;26.10;77.30
24426;DHT22;12611;44.446;26.000;2023-06-24T01:46:59;26.00;77.10
24426;DHT22;12611;44.446;26.000;2023-06-24T01:49:31;26.00;78.20
24426;DHT22;12611;44.446;26.000;2023-06-24T01:52:01;26.00;77.50
24426;DHT22;12611;44.446;26.000;2023-06-24T01:54:32;26.00;77.50
24426;DHT22;12611;44.446;26.000;2023-06-24T01:57:03;26.00;77.40
24426;DHT22;12611;44.446;26.000;2023-06-24T01:59:34;26.00;76.90
24426;DHT22;12611;44.446;26.000;2023-06-24T02:02:05;26.00;76.60
24426;DHT22;12611;44.446;26.000;2023-06-24T02:04:35;26.00;76.50
24426;DHT22;12611;44.446;26.000;2023-06-24T02:07:05;26.00;76.30
24426;DHT22;12611;44.446;26.000;2023-06-24T02:09:34;26.00;76.20
24426;DHT22;12611;44.446;26.000;2023-06-24T02:12:04;26.00;76.50
24426;DHT22;12611;44.446;26.000;2023-06-24T02:14:34;25.90;76.30
24426;DHT22;12611;44.446;26.000;2023-06-24T02:17:07;25.90;76.10
24426;DHT22;12611;44.446;26.000;2023-06-24T02:19:37;25.90;76.00
24426;DHT22;12611;44.446;26.000;2023-06-24T02:22:07;25.90;75.90
24426;DHT22;12611;44.446;26.000;2023-06-24T02:24:37;25.90;75.80
24426;DHT22;12611;44.446;26.000;2023-06-24T02:27:07;25.90;75.70
24426;DHT22;12611;44.446;26.000;2023-06-24T02:29:36;25.90;75.60
24426;DHT22;12611;44.446;26.000;2023-06-24T02:32:08;25.90;75.50
24426;DHT22;12611;44.446;26.000;2023-06-24T02:34:37;25.90;75.50
24426;DHT22;12611;44.446;26.000;2023-06-24T02:37:05;25.90;75.50
24426;DHT22;12611;44.446;26.000;2023-06-24T02:39:34;25.90;76.30
24426;DHT22;12611;44.446;26.000;2023-06-24T02:42:05;25.90;75.50
24426;DHT22;12611;44.446;26.000;2023-06-24T02:44:33;25.90;75.50
24426;DHT22;12611;44.446;26.000;2023-06-24T02:47:02;25.80;75.60
24426;DHT22;12611;44.446;26.000;2023-06-24T02:49:32;25.80;75.60
24426;DHT22;12611;44.446;26.000;2023-06-24T02:52:01;25.80;75.80
24426;DHT22;12611;44.446;26.000;2023-06-24T02:54:30;25.80;75.90
24426;DHT22;12611;44.446;26.000;2023-06-24T02:56:59;25.80;75.90
24426;DHT22;12611;44.446;26.000;2023-06-24T02:59:28;25.80;75.90
24426;DHT22;12611;44.446;26.000;2023-06-24T03:01:56;25.70;75.90
24426;DHT22;12611;44.446;26.000;2023-06-24T03:04:25;25.70;75.90
24426;DHT22;12611;44.446;26.000;2023-06-24T03:06:56;25.70;76.00
24426;DHT22;12611;44.446;26.000;2023-06-24T03:09:26;25.70;76.10
24426;DHT22;12611;44.446;26.000;2023-06-24T03:11:55;25.70;76.10
24426;DHT22;12611;44.446;26.000;2023-06-24T03:14:23;25.70;76.10
24426;DHT22;12611;44.446;26.000;2023-06-24T03:16:51;25.70;76.20
24426;DHT22;12611;44.446;26.000;2023-06-24T03:19:20;25.70;76.20
24426;DHT22;12611;44.446;26.000;2023-06-24T03:21:48;25.70;76.10
24426;DHT22;12611;44.446;26.000;2023-06-24T03:24:18;25.70;76.20
24426;DHT22;12611;44.446;26.000;2023-06-24T03:26:46;25.70;76.30
24426;DHT22;12611;44.446;26.000;2023-06-24T03:29:17;25.80;76.40
24426;DHT22;12611;44.446;26.000;2023-06-24T03:31:45;25.80;76.40
24426;DHT22;12611;44.446;26.000;2023-06-24T03:34:14;25.80;76.50
24426;DHT22;12611;44.446;26.000;2023-06-24T03:36:43;25.80;76.60
24426;DHT22;12611;44.446;26.000;2023-06-24T03:39:12;25.80;76.70
24426;DHT22;12611;44.446;26.000;2023-06-24T03:41:41;25.80;76.90
24426;DHT22;12611;44.446;26.000;2023-06-24T03:44:10;25.80;77.00
24426;DHT22;12611;44.446;26.000;2023-06-24T03:46:38;25.80;77.00
24426;DHT22;12611;44.446;26.000;2023-06-24T03:49:06;25.90;77.10
24426;DHT22;12611;44.446;26.000;2023-06-24T03:51:35;25.90;77.20
24426;DHT22;12611;44.446;26.000;2023-06-24T03:54:04;25.90;77.20
24426;DHT22;12611;44.446;26.000;2023-06-24T03:56:32;26.00;77.30
24426;DHT22;12611;44.446;26.000;2023-06-24T03:59:02;25.90;77.40
24426;DHT22;12611;44.446;26.000;2023-06-24T04:01:32;26.00;77.50
24426;DHT22;12611;44.446;26.000;2023-06-24T04:04:01;26.00;77.60
24426;DHT22;12611;44.446;26.000;2023-06-24T04:06:29;26.00;77.60
24426;DHT22;12611;44.446;26.000;2023-06-24T04:08:58;26.10;77.70
24426;DHT22;12611;44.446;26.000;2023-06-24T04:11:26;26.10;77.90
24426;DHT22;12611;44.446;26.000;2023-06-24T04:13:55;26.10;78.00
24426;DHT22;12611;44.446;26.000;2023-06-24T04:16:24;26.10;78.00
24426;DHT22;12611;44.446;26.000;2023-06-24T04:18:53;26.20;78.00
24426;DHT22;12611;44.446;26.000;2023-06-24T04:21:21;26.20;78.00
24426;DHT22;12611;44.446;26.000;2023-06-24T04:23:50;26.30;78.10
24426;DHT22;12611;44.446;26.000;2023-06-24T04:26:18;26.30;78.10
24426;DHT22;12611;44.446;26.000;2023-06-24T04:28:46;26.40;78.10
24426;DHT22;12611;44.446;26.000;2023-06-24T04:31:15;26.40;78.10
24426;DHT22;12611;44.446;26.000;2023-06-24T04:33:45;26.40;78.50
24426;DHT22;12611;44.446;26.000;2023-06-24T04:36:14;26.50;78.40
24426;DHT22;12611;44.446;26.000;2023-06-24T04:38:43;26.60;78.70
24426;DHT22;12611;44.446;26.000;2023-06-24T04:41:11;26.60;78.70
24426;DHT22;12611;44.446;26.000;2023-06-24T04:43:40;26.70;78.60
24426;DHT22;12611;44.446;26.000;2023-06-24T04:46:09;26.70;78.60
24426;DHT22;12611;44.446;26.000;2023-06-24T04:48:38;26.70;78.80
24426;DHT22;12611;44.446;26.000;2023-06-24T04:51:08;26.80;78.80
24426;DHT22;12611;44.446;26.000;2023-06-24T04:53:36;26.80;78.50
24426;DHT22;12611;44.446;26.000;2023-06-24T04:56:05;26.90;78.50
24426;DHT22;12611;44.446;26.000;2023-06-24T04:58:33;26.90;78.40
24426;DHT22;12611;44.446;26.000;2023-06-24T05:01:02;27.00;78.50
24426;DHT22;12611;44.446;26.000;2023-06-24T05:03:30;27.00;78.40
24426;DHT22;12611;44.446;26.000;2023-06-24T05:05:58;27.10;78.40
24426;DHT22;12611;44.446;26.000;2023-06-24T05:08:28;27.10;78.30
24426;DHT22;12611;44.446;26.000;2023-06-24T05:10:56;27.20;78.20
24426;DHT22;12611;44.446;26.000;2023-06-24T05:13:28;27.20;78.10
24426;DHT22;12611;44.446;26.000;2023-06-24T05:15:56;27.20;77.90
24426;DHT22;12611;44.446;26.000;2023-06-24T05:18:24;27.30;77.80
24426;DHT22;12611;44.446;26.000;2023-06-24T05:20:53;27.40;77.80
24426;DHT22;12611;44.446;26.000;2023-06-24T05:23:21;27.40;77.70
24426;DHT22;12611;44.446;26.000;2023-06-24T05:25:51;27.40;77.70
24426;DHT22;12611;44.446;26.000;2023-06-24T05:28:19;27.50;77.60
24426;DHT22;12611;44.446;26.000;2023-06-24T05:30:48;27.50;77.50
24426;DHT22;12611;44.446;26.000;2023-06-24T05:33:16;27.60;77.40
24426;DHT22;12611;44.446;26.000;2023-06-24T05:35:44;27.60;77.20
24426;DHT22;12611;44.446;26.000;2023-06-24T05:38:13;27.60;77.10
24426;DHT22;12611;44.446;26.000;2023-06-24T05:40:41;27.70;77.00
24426;DHT22;12611;44.446;26.000;2023-06-24T05:43:11;27.70;76.80
24426;DHT22;12611;44.446;26.000;2023-06-24T05:45:40;27.80;76.70
24426;DHT22;12611;44.446;26.000;2023-06-24T05:48:08;27.80;76.40
24426;DHT22;12611;44.446;26.000;2023-06-24T05:50:36;27.90;76.50
24426;DHT22;12611;44.446;26.000;2023-06-24T05:53:04;27.90;76.40
24426;DHT22;12611;44.446;26.000;2023-06-24T05:55:33;28.00;76.60
24426;DHT22;12611;44.446;26.000;2023-06-24T05:58:02;28.10;76.30
24426;DHT22;12611;44.446;26.000;2023-06-24T06:00:32;28.10;76.10
24426;DHT22;12611;44.446;26.000;2023-06-24T06:03:00;28.10;76.10
24426;DHT22;12611;44.446;26.000;2023-06-24T06:05:28;28.20;75.80
24426;DHT22;12611;44.446;26.000;2023-06-24T06:07:57;28.20;75.60
24426;DHT22;12611;44.446;26.000;2023-06-24T06:10:25;28.30;75.70
24426;DHT22;12611;44.446;26.000;2023-06-24T06:12:54;28.30;75.50
24426;DHT22;12611;44.446;26.000;2023-06-24T06:15:22;28.40;75.40
24426;DHT22;12611;44.446;26.000;2023-06-24T06:17:52;28.50;75.40
24426;DHT22;12611;44.446;26.000;2023-06-24T06:20:20;28.60;75.30
24426;DHT22;12611;44.446;26.000;2023-06-24T06:22:49;28.60;75.20
24426;DHT22;12611;44.446;26.000;2023-06-24T06:25:18;28.70;75.20
24426;DHT22;12611;44.446;26.000;2023-06-24T06:27:46;28.70;75.10
24426;DHT22;12611;44.446;26.000;2023-06-24T06:30:14;28.80;74.90
24426;DHT22;12611;44.446;26.000;2023-06-24T06:32:43;28.90;74.80
24426;DHT22;12611;44.446;26.000;2023-06-24T06:35:13;29.00;74.70
24426;DHT22;12611;44.446;26.000;2023-06-24T06:37:41;29.10;74.50
24426;DHT22;12611;44.446;26.000;2023-06-24T06:40:10;29.10;74.20
24426;DHT22;12611;44.446;26.000;2023-06-24T06:42:38;29.20;74.00
24426;DHT22;12611;44.446;26.000;2023-06-24T06:45:07;29.30;74.00
24426;DHT22;12611;44.446;26.000;2023-06-24T06:47:36;29.40;73.90
24426;DHT22;12611;44.446;26.000;2023-06-24T06:50:06;29.50;73.80
24426;DHT22;12611;44.446;26.000;2023-06-24T06:52:36;29.50;73.40
24426;DHT22;12611;44.446;26.000;2023-06-24T06:55:05;29.60;73.10
24426;DHT22;12611;44.446;26.000;2023-06-24T06:57:34;29.60;73.10
24426;DHT22;12611;44.446;26.000;2023-06-24T07:00:02;29.70;73.20
24426;DHT22;12611;44.446;26.000;2023-06-24T07:02:31;29.80;73.10
24426;DHT22;12611;44.446;26.000;2023-06-24T07:05:00;29.90;72.90
24426;DHT22;12611;44.446;26.000;2023-06-24T07:07:29;29.90;72.90
24426;DHT22;12611;44.446;26.000;2023-06-24T07:09:58;30.00;72.90
24426;DHT22;12611;44.446;26.000;2023-06-24T07:12:27;30.00;73.00
24426;DHT22;12611;44.446;26.000;2023-06-24T07:14:55;30.10;73.00
24426;DHT22;12611;44.446;26.000;2023-06-24T07:17:24;30.20;72.90
24426;DHT22;12611;44.446;26.000;2023-06-24T07:19:52;30.20;72.80
24426;DHT22;12611;44.446;26.000;2023-06-24T07:22:22;30.30;72.60
24426;DHT22;12611;44.446;26.000;2023-06-24T07:24:51;30.30;72.30
24426;DHT22;12611;44.446;26.000;2023-06-24T07:27:23;30.40;72.50
24426;DHT22;12611;44.446;26.000;2023-06-24T07:29:55;30.40;72.50
24426;DHT22;12611;44.446;26.000;2023-06-24T07:32:23;30.50;72.40
24426;DHT22;12611;44.446;26.000;2023-06-24T07:34:52;30.60;73.10
24426;DHT22;12611;44.446;26.000;2023-06-24T07:37:21;30.60;72.20
24426;DHT22;12611;44.446;26.000;2023-06-24T07:39:51;30.60;71.40
24426;DHT22;12611;44.446;26.000;2023-06-24T07:42:21;30.60;71.20
24426;DHT22;12611;44.446;26.000;2023-06-24T07:44:50;30.70;71.20
24426;DHT22;12611;44.446;26.000;2023-06-24T07:47:19;30.70;71.10
24426;DHT22;12611;44.446;26.000;2023-06-24T07:49:48;30.80;71.10
24426;DHT22;12611;44.446;26.000;2023-06-24T07:52:19;30.80;70.90
24426;DHT22;12611;44.446;26.000;2023-06-24T07:54:47;30.80;70.70
24426;DHT22;12611;44.446;26.000;2023-06-24T07:57:16;30.90;70.80
24426;DHT22;12611;44.446;26.000;2023-06-24T07:59:46;30.90;70.10
24426;DHT22;12611;44.446;26.000;2023-06-24T08:02:14;31.00;69.70
24426;DHT22;12611;44.446;26.000;2023-06-24T08:04:43;31.00;69.20
24426;DHT22;12611;44.446;26.000;2023-06-24T08:07:12;31.10;69.30
24426;DHT22;12611;44.446;26.000;2023-06-24T08:09:41;31.10;69.20
24426;DHT22;12611;44.446;26.000;2023-06-24T08:12:10;31.10;69.10
24426;DHT22;12611;44.446;26.000;2023-06-24T08:14:39;31.20;69.10
24426;DHT22;12611;44.446;26.000;2023-06-24T08:17:08;31.20;69.10
24426;DHT22;12611;44.446;26.000;2023-06-24T08:19:37;31.30;68.60
24426;DHT22;12611;44.446;26.000;2023-06-24T08:22:05;31.30;68.50
24426;DHT22;12611;44.446;26.000;2023-06-24T08:24:33;31.40;68.30
24426;DHT22;12611;44.446;26.000;2023-06-24T08:27:03;31.40;68.40
24426;DHT22;12611;44.446;26.000;2023-06-24T08:29:31;31.40;68.20
24426;DHT22;12611;44.446;26.000;2023-06-24T08:32:00;31.50;68.30
24426;DHT22;12611;44.446;26.000;2023-06-24T08:34:29;31.50;67.50
24426;DHT22;12611;44.446;26.000;2023-06-24T08:36:58;31.60;67.00
24426;DHT22;12611;44.446;26.000;2023-06-24T08:39:26;31.60;66.60
24426;DHT22;12611;44.446;26.000;2023-06-24T08:42:17;31.70;66.30
24426;DHT22;12611;44.446;26.000;2023-06-24T08:44:46;31.70;64.90
24426;DHT22;12611;44.446;26.000;2023-06-24T08:47:15;31.70;65.50
24426;DHT22;12611;44.446;26.000;2023-06-24T08:49:47;31.80;65.40
24426;DHT22;12611;44.446;26.000;2023-06-24T08:52:16;31.80;65.30
24426;DHT22;12611;44.446;26.000;2023-06-24T08:54:46;31.90;64.90
24426;DHT22;12611;44.446;26.000;2023-06-24T08:57:16;31.90;63.90
24426;DHT22;12611;44.446;26.000;2023-06-24T08:59:46;32.00;64.00
24426;DHT22;12611;44.446;26.000;2023-06-24T09:02:15;32.00;63.20
24426;DHT22;12611;44.446;26.000;2023-06-24T09:04:46;32.10;63.00
24426;DHT22;12611;44.446;26.000;2023-06-24T09:07:25;32.10;61.40
24426;DHT22;12611;44.446;26.000;2023-06-24T09:09:54;32.20;60.50
24426;DHT22;12611;44.446;26.000;2023-06-24T09:12:24;32.20;60.20
24426;DHT22;12611;44.446;26.000;2023-06-24T09:14:53;32.30;60.90
24426;DHT22;12611;44.446;26.000;2023-06-24T09:17:22;32.30;59.90
24426;DHT22;12611;44.446;26.000;2023-06-24T09:19:52;32.40;60.20
24426;DHT22;12611;44.446;26.000;2023-06-24T09:22:20;32.40;60.50
24426;DHT22;12611;44.446;26.000;2023-06-24T09:24:49;32.40;60.10
24426;DHT22;12611;44.446;26.000;2023-06-24T09:27:18;32.50;60.10
24426;DHT22;12611;44.446;26.000;2023-06-24T09:29:48;32.60;60.50
24426;DHT22;12611;44.446;26.000;2023-06-24T09:32:17;32.50;60.20
24426;DHT22;12611;44.446;26.000;2023-06-24T09:34:46;32.60;59.80
24426;DHT22;12611;44.446;26.000;2023-06-24T09:37:22;32.70;59.70
24426;DHT22;12611;44.446;26.000;2023-06-24T09:39:51;32.70;59.70
24426;DHT22;12611;44.446;26.000;2023-06-24T09:42:21;32.80;59.60
24426;DHT22;12611;44.446;26.000;2023-06-24T09:44:54;32.90;58.80
24426;DHT22;12611;44.446;26.000;2023-06-24T09:47:23;32.90;58.20
24426;DHT22;12611;44.446;26.000;2023-06-24T09:49:54;33.00;59.40
24426;DHT22;12611;44.446;26.000;2023-06-24T09:52:25;33.00;58.40
24426;DHT22;12611;44.446;26.000;2023-06-24T09:54:55;33.20;58.70
24426;DHT22;12611;44.446;26.000;2023-06-24T09:57:28;33.20;58.60
24426;DHT22;12611;44.446;26.000;2023-06-24T09:59:58;33.30;58.50
24426;DHT22;12611;44.446;26.000;2023-06-24T10:02:28;33.40;57.20
24426;DHT22;12611;44.446;26.000;2023-06-24T10:04:59;33.40;56.00
24426;DHT22;12611;44.446;26.000;2023-06-24T10:07:31;33.40;55.30
24426;DHT22;12611;44.446;26.000;2023-06-24T10:10:01;33.50;55.90
24426;DHT22;12611;44.446;26.000;2023-06-24T10:12:30;33.60;56.00
24426;DHT22;12611;44.446;26.000;2023-06-24T10:15:00;33.70;56.20
24426;DHT22;12611;44.446;26.000;2023-06-24T10:17:30;33.80;56.20
24426;DHT22;12611;44.446;26.000;2023-06-24T10:20:04;33.70;54.70
24426;DHT22;12611;44.446;26.000;2023-06-24T10:22:34;33.90;55.20
24426;DHT22;12611;44.446;26.000;2023-06-24T10:25:06;34.00;55.60
24426;DHT22;12611;44.446;26.000;2023-06-24T10:27:39;34.00;55.60
24426;DHT22;12611;44.446;26.000;2023-06-24T10:30:17;34.20;55.80
24426;DHT22;12611;44.446;26.000;2023-06-24T10:32:51;34.30;55.70
24426;DHT22;12611;44.446;26.000;2023-06-24T10:35:25;34.30;55.60
24426;DHT22;12611;44.446;26.000;2023-06-24T10:37:59;34.40;55.60
24426;DHT22;12611;44.446;26.000;2023-06-24T10:40:38;34.40;55.00
24426;DHT22;12611;44.446;26.000;2023-06-24T10:43:28;34.40;55.20
24426;DHT22;12611;44.446;26.000;2023-06-24T10:45:58;34.40;55.50
24426;DHT22;12611;44.446;26.000;2023-06-24T10:48:27;34.40;55.60
24426;DHT22;12611;44.446;26.000;2023-06-24T10:50:55;34.40;55.60
24426;DHT22;12611;44.446;26.000;2023-06-24T10:53:25;34.40;55.60
24426;DHT22;12611;44.446;26.000;2023-06-24T10:55:57;34.30;55.50
24426;DHT22;12611;44.446;26.000;2023-06-24T10:58:26;34.40;55.40
24426;DHT22;12611;44.446;26.000;2023-06-24T11:01:06;34.40;55.30
24426;DHT22;12611;44.446;26.000;2023-06-24T11:03:35;34.50;55.30
24426;DHT22;12611;44.446;26.000;2023-06-24T11:06:06;34.60;54.90
24426;DHT22;12611;44.446;26.000;2023-06-24T11:08:44;34.70;54.50
24426;DHT22;12611;44.446;26.000;2023-06-24T11:11:20;34.70;54.50
24426;DHT22;12611;44.446;26.000;2023-06-24T11:13:49;34.80;54.00
24426;DHT22;12611;44.446;26.000;2023-06-24T11:16:21;34.80;54.10
24426;DHT22;12611;44.446;26.000;2023-06-24T11:18:50;34.90;53.90
24426;DHT22;12611;44.446;26.000;2023-06-24T11:21:18;34.90;53.70
24426;DHT22;12611;44.446;26.000;2023-06-24T11:23:48;34.90;53.40
24426;DHT22;12611;44.446;26.000;2023-06-24T11:26:16;35.00;53.60
24426;DHT22;12611;44.446;26.000;2023-06-24T11:28:44;35.00;53.60
24426;DHT22;12611;44.446;26.000;2023-06-24T11:31:16;35.10;53.40
24426;DHT22;12611;44.446;26.000;2023-06-24T11:33:48;35.30;53.60
24426;DHT22;12611;44.446;26.000;2023-06-24T11:36:18;35.30;53.10
24426;DHT22;12611;44.446;26.000;2023-06-24T11:38:48;35.30;52.50
24426;DHT22;12611;44.446;26.000;2023-06-24T11:41:20;35.20;52.80
24426;DHT22;12611;44.446;26.000;2023-06-24T11:43:50;35.20;52.60
24426;DHT22;12611;44.446;26.000;2023-06-24T11:46:21;35.00;51.60
24426;DHT22;12611;44.446;26.000;2023-06-24T11:48:50;35.00;51.90
24426;DHT22;12611;44.446;26.000;2023-06-24T11:51:18;35.00;51.80
24426;DHT22;12611;44.446;26.000;2023-06-24T11:53:48;35.00;52.10
24426;DHT22;12611;44.446;26.000;2023-06-24T11:56:17;35.00;52.20
24426;DHT22;12611;44.446;26.000;2023-06-24T11:58:45;35.10;52.00
24426;DHT22;12611;44.446;26.000;2023-06-24T12:01:18;35.20;52.30
24426;DHT22;12611;44.446;26.000;2023-06-24T12:03:46;35.30;52.30
24426;DHT22;12611;44.446;26.000;2023-06-24T12:06:15;35.40;52.40
24426;DHT22;12611;44.446;26.000;2023-06-24T12:08:43;35.50;52.60
24426;DHT22;12611;44.446;26.000;2023-06-24T12:11:19;35.50;51.90
24426;DHT22;12611;44.446;26.000;2023-06-24T12:13:48;35.60;51.40
24426;DHT22;12611;44.446;26.000;2023-06-24T12:16:16;35.70;50.80
24426;DHT22;12611;44.446;26.000;2023-06-24T12:18:45;35.80;50.80
24426;DHT22;12611;44.446;26.000;2023-06-24T12:21:13;35.90;51.10
24426;DHT22;12611;44.446;26.000;2023-06-24T12:23:42;36.00;51.20
24426;DHT22;12611;44.446;26.000;2023-06-24T12:26:10;36.10;50.90
24426;DHT22;12611;44.446;26.000;2023-06-24T12:28:40;36.30;51.30
24426;DHT22;12611;44.446;26.000;2023-06-24T12:31:08;36.40;51.60
24426;DHT22;12611;44.446;26.000;2023-06-24T12:33:36;36.50;51.00
24426;DHT22;12611;44.446;26.000;2023-06-24T12:36:05;36.50;51.00
24426;DHT22;12611;44.446;26.000;2023-06-24T12:38:34;36.60;50.70
24426;DHT22;12611;44.446;26.000;2023-06-24T12:41:02;36.60;50.70
24426;DHT22;12611;44.446;26.000;2023-06-24T12:43:32;36.50;49.70
24426;DHT22;12611;44.446;26.000;2023-06-24T12:46:01;36.50;50.20
24426;DHT22;12611;44.446;26.000;2023-06-24T12:48:30;36.70;50.50
24426;DHT22;12611;44.446;26.000;2023-06-24T12:50:58;36.70;49.40
24426;DHT22;12611;44.446;26.000;2023-06-24T12:53:26;36.80;48.70
24426;DHT22;12611;44.446;26.000;2023-06-24T12:55:55;36.90;48.00
24426;DHT22;12611;44.446;26.000;2023-06-24T12:58:24;36.90;47.40
24426;DHT22;12611;44.446;26.000;2023-06-24T13:00:53;36.80;47.50
24426;DHT22;12611;44.446;26.000;2023-06-24T13:03:24;36.70;47.80
24426;DHT22;12611;44.446;26.000;2023-06-24T13:05:53;36.70;47.80
24426;DHT22;12611;44.446;26.000;2023-06-24T13:08:21;36.80;48.10
24426;DHT22;12611;44.446;26.000;2023-06-24T13:10:49;36.80;48.00
24426;DHT22;12611;44.446;26.000;2023-06-24T13:13:18;36.90;48.50
24426;DHT22;12611;44.446;26.000;2023-06-24T13:15:46;37.10;48.50
24426;DHT22;12611;44.446;26.000;2023-06-24T13:18:17;37.20;48.60
24426;DHT22;12611;44.446;26.000;2023-06-24T13:20:48;37.30;48.00
24426;DHT22;12611;44.446;26.000;2023-06-24T13:23:17;37.40;47.80
24426;DHT22;12611;44.446;26.000;2023-06-24T13:25:45;37.50;47.70
24426;DHT22;12611;44.446;26.000;2023-06-24T13:28:14;37.50;47.50
24426;DHT22;12611;44.446;26.000;2023-06-24T13:30:42;37.50;47.20
24426;DHT22;12611;44.446;26.000;2023-06-24T13:33:11;37.50;46.90
24426;DHT22;12611;44.446;26.000;2023-06-24T13:35:39;37.50;47.00
24426;DHT22;12611;44.446;26.000;2023-06-24T13:38:09;37.50;47.00
24426;DHT22;12611;44.446;26.000;2023-06-24T13:40:39;37.40;46.80
24426;DHT22;12611;44.446;26.000;2023-06-24T13:43:07;37.20;46.30
24426;DHT22;12611;44.446;26.000;2023-06-24T13:45:36;37.20;46.30
24426;DHT22;12611;44.446;26.000;2023-06-24T13:48:04;37.20;46.60
24426;DHT22;12611;44.446;26.000;2023-06-24T13:50:32;37.20;46.80
24426;DHT22;12611;44.446;26.000;2023-06-24T13:53:01;37.20;46.60
24426;DHT22;12611;44.446;26.000;2023-06-24T13:55:31;37.20;46.80
24426;DHT22;12611;44.446;26.000;2023-06-24T13:58:00;37.20;46.80
24426;DHT22;12611;44.446;26.000;2023-06-24T14:00:28;37.30;46.80
24426;DHT22;12611;44.446;26.000;2023-06-24T14:02:57;37.30;46.70
24426;DHT22;12611;44.446;26.000;2023-06-24T14:05:25;37.20;46.20
24426;DHT22;12611;44.446;26.000;2023-06-24T14:07:54;37.20;46.50
24426;DHT22;12611;44.446;26.000;2023-06-24T14:10:22;37.10;46.80
24426;DHT22;12611;44.446;26.000;2023-06-24T14:12:52;37.00;46.70
24426;DHT22;12611;44.446;26.000;2023-06-24T14:15:21;36.90;46.60
24426;DHT22;12611;44.446;26.000;2023-06-24T14:17:49;36.80;46.90
24426;DHT22;12611;44.446;26.000;2023-06-24T14:20:18;36.70;47.00
24426;DHT22;12611;44.446;26.000;2023-06-24T14:22:46;36.60;47.00
24426;DHT22;12611;44.446;26.000;2023-06-24T14:25:15;36.50;47.00
24426;DHT22;12611;44.446;26.000;2023-06-24T14:27:44;36.50;47.20
24426;DHT22;12611;44.446;26.000;2023-06-24T14:30:14;36.40;47.40
24426;DHT22;12611;44.446;26.000;2023-06-24T14:32:43;36.40;47.60
24426;DHT22;12611;44.446;26.000;2023-06-24T14:35:11;36.40;47.50
24426;DHT22;12611;44.446;26.000;2023-06-24T14:37:40;36.50;47.00
24426;DHT22;12611;44.446;26.000;2023-06-24T14:40:11;36.40;47.30
24426;DHT22;12611;44.446;26.000;2023-06-24T14:42:39;36.40;47.30
24426;DHT22;12611;44.446;26.000;2023-06-24T14:45:08;36.30;47.50
24426;DHT22;12611;44.446;26.000;2023-06-24T14:47:40;36.20;47.60
24426;DHT22;12611;44.446;26.000;2023-06-24T14:50:09;36.10;47.80
24426;DHT22;12611;44.446;26.000;2023-06-24T14:52:38;36.10;48.00
24426;DHT22;12611;44.446;26.000;2023-06-24T14:55:07;36.00;48.20
24426;DHT22;12611;44.446;26.000;2023-06-24T14:57:36;36.00;48.30
24426;DHT22;12611;44.446;26.000;2023-06-24T15:00:07;35.90;48.40
24426;DHT22;12611;44.446;26.000;2023-06-24T15:02:35;35.80;48.40
24426;DHT22;12611;44.446;26.000;2023-06-24T15:05:06;35.80;48.50
24426;DHT22;12611;44.446;26.000;2023-06-24T15:07:35;35.70;48.50
24426;DHT22;12611;44.446;26.000;2023-06-24T15:10:06;35.70;48.70
24426;DHT22;12611;44.446;26.000;2023-06-24T15:12:34;35.70;48.80
24426;DHT22;12611;44.446;26.000;2023-06-24T15:15:03;35.60;48.80
24426;DHT22;12611;44.446;26.000;2023-06-24T15:17:32;35.60;49.10
24426;DHT22;12611;44.446;26.000;2023-06-24T15:20:02;35.60;49.10
24426;DHT22;12611;44.446;26.000;2023-06-24T15:22:32;35.60;49.10
24426;DHT22;12611;44.446;26.000;2023-06-24T15:25:01;35.60;48.90
24426;DHT22;12611;44.446;26.000;2023-06-24T15:27:29;35.60;48.80
24426;DHT22;12611;44.446;26.000;2023-06-24T15:29:58;35.70;48.90
24426;DHT22;12611;44.446;26.000;2023-06-24T15:32:26;35.60;49.00